createdAt,value
2019-05-11T00:00:03.845Z,79.02
2019-05-11T00:10:02.627Z,80.37
2019-05-11T00:20:03.524Z,81.29
2019-05-11T00:30:04.279Z,81.99
2019-05-11T00:40:15.216Z,82.79
2019-05-11T00:50:09.052Z,83.56
2019-05-11T01:00:03.775Z,84.33
2019-05-11T01:10:03.864Z,84.00
2019-05-11T01:20:03.316Z,83.22
2019-05-11T01:30:13.263Z,81.62
2019-05-11T01:40:03.043Z,81.22
2019-05-11T01:50:03.650Z,81.91
2019-05-11T02:00:03.744Z,82.90
2019-05-11T02:10:08.194Z,82.42
2019-05-11T02:20:03.019Z,83.43
2019-05-11T02:30:04.905Z,81.43
2019-05-11T02:40:03.190Z,82.52
2019-05-11T02:50:03.811Z,82.78
2019-05-11T03:00:04.083Z,83.93
2019-05-11T03:10:02.975Z,84.95
2019-05-11T03:20:03.536Z,85.49
2019-05-11T03:30:03.187Z,85.70
2019-05-11T03:40:03.868Z,84.97
2019-05-11T03:50:02.751Z,83.35
2019-05-11T04:00:03.764Z,84.22
2019-05-11T04:10:03.537Z,84.12
2019-05-11T04:20:03.522Z,83.58
2019-05-11T04:30:03.494Z,82.74
2019-05-11T04:40:04.065Z,83.88
2019-05-11T04:50:02.680Z,85.30
2019-05-11T05:00:03.629Z,87.74
2019-05-11T05:10:08.135Z,87.57
2019-05-11T05:20:04.404Z,87.41
2019-05-11T05:30:04.435Z,87.24
2019-05-11T05:40:09.871Z,87.78
2019-05-11T05:50:03.024Z,88.10
2019-05-11T06:00:03.677Z,89.63
2019-05-11T06:10:03.951Z,90.43
2019-05-11T06:20:09.887Z,91.13
2019-05-11T06:30:04.043Z,91.81
2019-05-11T06:40:03.059Z,91.78
2019-05-11T06:50:03.501Z,92.56
2019-05-11T07:00:04.078Z,87.37
2019-05-11T07:10:03.074Z,89.79
2019-05-11T07:20:03.369Z,90.46
2019-05-11T07:30:03.707Z,89.37
2019-05-11T07:40:02.800Z,88.57
2019-05-11T07:50:02.355Z,83.70
2019-05-11T08:00:03.284Z,83.18
2019-05-11T08:10:03.213Z,83.67
2019-05-11T08:20:02.941Z,80.70
2019-05-11T08:30:02.953Z,80.29
2019-05-11T08:40:08.680Z,80.42
2019-05-11T08:50:02.887Z,79.86
2019-05-11T09:00:03.885Z,76.56
2019-05-11T09:10:02.790Z,75.23
2019-05-11T09:20:02.517Z,68.37
2019-05-11T09:30:03.654Z,65.89
2019-05-11T09:40:02.672Z,63.34
2019-05-11T09:50:03.107Z,62.16
2019-05-11T10:00:03.122Z,62.05
2019-05-11T10:10:03.070Z,59.96
2019-05-11T10:20:02.769Z,56.93
2019-05-11T10:30:03.956Z,58.49
2019-05-11T10:40:03.305Z,59.61
2019-05-11T10:50:02.779Z,59.32
2019-05-11T11:00:03.748Z,57.84
2019-05-11T11:10:02.655Z,58.38
2019-05-11T11:20:02.380Z,57.73
2019-05-11T11:30:03.594Z,59.45
2019-05-11T11:40:02.531Z,58.37
2019-05-11T11:50:03.152Z,60.68
2019-05-11T12:00:03.423Z,59.27
2019-05-11T12:10:02.622Z,60.05
2019-05-11T12:20:03.272Z,61.37
2019-05-11T12:30:03.337Z,68.15
2019-05-11T12:40:03.265Z,70.26
2019-05-11T12:50:02.845Z,72.25
2019-05-11T13:00:03.938Z,71.27
2019-05-11T13:10:02.859Z,71.83
2019-05-11T13:20:02.546Z,67.31
2019-05-11T13:30:04.035Z,63.88
2019-05-11T13:40:02.845Z,62.35
2019-05-11T13:50:03.310Z,60.38
2019-05-11T14:00:03.652Z,60.14
2019-05-11T14:10:02.740Z,54.35
2019-05-11T14:20:02.847Z,57.67
2019-05-11T14:30:04.858Z,59.76
2019-05-11T14:40:03.112Z,62.50
2019-05-11T14:50:09.257Z,48.36
2019-05-11T15:00:03.789Z,49.16
2019-05-11T15:10:04.709Z,54.64
2019-05-11T15:20:03.016Z,57.36
2019-05-11T15:30:03.263Z,59.58
2019-05-11T15:40:02.986Z,60.53
2019-05-11T15:50:02.480Z,60.46
2019-05-11T16:00:03.499Z,60.57
2019-05-11T16:10:03.089Z,60.29
2019-05-11T16:20:02.818Z,61.12
2019-05-11T16:30:04.062Z,60.88
2019-05-11T16:40:03.152Z,60.70
2019-05-11T16:50:02.824Z,60.32
2019-05-11T17:00:03.146Z,59.25
2019-05-11T17:10:02.932Z,57.28
2019-05-11T17:20:02.764Z,56.49
2019-05-11T17:30:09.443Z,56.23
2019-05-11T17:40:02.708Z,55.10
2019-05-11T17:50:04.400Z,55.07
2019-05-11T18:00:03.469Z,56.42
2019-05-11T18:10:03.391Z,58.86
2019-05-11T18:20:20.564Z,60.14
2019-05-11T18:30:02.931Z,60.45
2019-05-11T18:40:02.610Z,61.53
2019-05-11T18:50:03.032Z,61.52
2019-05-11T19:00:03.314Z,62.74
2019-05-11T19:10:02.766Z,64.01
2019-05-11T19:20:03.918Z,63.15
2019-05-11T19:30:03.286Z,64.39
2019-05-11T19:40:02.948Z,64.15
2019-05-11T19:50:02.962Z,64.84
2019-05-11T20:00:03.888Z,66.02
2019-05-11T20:10:02.776Z,66.30
2019-05-11T20:20:03.416Z,66.39
2019-05-11T20:30:03.337Z,66.92
2019-05-11T20:40:03.795Z,67.61
2019-05-11T20:50:09.046Z,68.77
2019-05-11T21:00:04.161Z,69.29
2019-05-11T21:10:02.831Z,70.18
2019-05-11T21:20:03.435Z,71.28
2019-05-11T21:30:03.777Z,72.20
2019-05-11T21:40:03.693Z,73.43
2019-05-11T21:50:03.402Z,75.03
2019-05-11T22:00:03.842Z,75.45
2019-05-11T22:10:03.133Z,75.66
2019-05-11T22:20:03.000Z,76.07
2019-05-11T22:30:04.267Z,76.94
2019-05-11T22:40:03.316Z,77.77
2019-05-11T22:50:03.139Z,79.00
2019-05-11T23:00:03.457Z,80.02
2019-05-11T23:10:09.392Z,80.99
2019-05-11T23:20:03.731Z,81.97
2019-05-11T23:30:04.006Z,83.16
2019-05-11T23:40:03.225Z,84.92
2019-05-11T23:50:03.525Z,86.78
